sensor_id;sensor_type;location;lat;lon;timestamp;P1;durP1;ratioP1;P2;durP2;ratioP2
40781;SDS011;26493;51.938;7.626;2022-09-01T00:01:43;15.65;;;9.93;;
40781;SDS011;26493;51.938;7.626;2022-09-01T00:04:16;14.38;;;9.65;;
40781;SDS011;26493;51.938;7.626;2022-09-01T00:06:44;15.30;;;9.90;;
40781;SDS011;26493;51.938;7.626;2022-09-01T00:09:11;15.63;;;9.80;;
40781;SDS011;26493;51.938;7.626;2022-09-01T00:11:39;15.63;;;10.27;;
40781;SDS011;26493;51.938;7.626;2022-09-01T00:14:07;16.38;;;9.90;;
40781;SDS011;26493;51.938;7.626;2022-09-01T00:16:34;16.13;;;10.50;;
40781;SDS011;26493;51.938;7.626;2022-09-01T00:19:00;15.10;;;10.25;;
40781;SDS011;26493;51.938;7.626;2022-09-01T00:21:29;16.83;;;10.20;;
40781;SDS011;26493;51.938;7.626;2022-09-01T00:23:58;14.63;;;10.07;;
40781;SDS011;26493;51.938;7.626;2022-09-01T00:26:25;16.63;;;9.60;;
40781;SDS011;26493;51.938;7.626;2022-09-01T00:28:51;15.73;;;9.75;;
40781;SDS011;26493;51.938;7.626;2022-09-01T00:31:17;14.63;;;9.57;;
40781;SDS011;26493;51.938;7.626;2022-09-01T00:33:44;15.25;;;9.68;;
40781;SDS011;26493;51.938;7.626;2022-09-01T00:36:10;16.33;;;10.23;;
40781;SDS011;26493;51.938;7.626;2022-09-01T00:38:36;16.15;;;10.18;;
40781;SDS011;26493;51.938;7.626;2022-09-01T00:41:02;16.42;;;10.00;;
40781;SDS011;26493;51.938;7.626;2022-09-01T00:46:07;15.70;;;9.70;;
40781;SDS011;26493;51.938;7.626;2022-09-01T00:48:37;15.20;;;9.90;;
40781;SDS011;26493;51.938;7.626;2022-09-01T00:51:03;16.85;;;9.98;;
40781;SDS011;26493;51.938;7.626;2022-09-01T00:53:31;14.80;;;9.75;;
40781;SDS011;26493;51.938;7.626;2022-09-01T00:55:58;15.10;;;9.57;;
40781;SDS011;26493;51.938;7.626;2022-09-01T00:58:23;16.35;;;9.52;;
40781;SDS011;26493;51.938;7.626;2022-09-01T01:00:50;15.18;;;9.70;;
40781;SDS011;26493;51.938;7.626;2022-09-01T01:03:18;16.42;;;10.13;;
40781;SDS011;26493;51.938;7.626;2022-09-01T01:05:48;16.77;;;9.35;;
40781;SDS011;26493;51.938;7.626;2022-09-01T01:08:19;15.00;;;9.30;;
40781;SDS011;26493;51.938;7.626;2022-09-01T01:11:02;15.88;;;9.30;;
40781;SDS011;26493;51.938;7.626;2022-09-01T01:13:45;15.50;;;9.38;;
40781;SDS011;26493;51.938;7.626;2022-09-01T01:16:20;18.05;;;9.48;;
40781;SDS011;26493;51.938;7.626;2022-09-01T01:18:48;14.95;;;9.35;;
40781;SDS011;26493;51.938;7.626;2022-09-01T01:21:37;15.43;;;9.68;;
40781;SDS011;26493;51.938;7.626;2022-09-01T01:26:50;18.80;;;9.07;;
40781;SDS011;26493;51.938;7.626;2022-09-01T01:29:16;17.50;;;9.27;;
40781;SDS011;26493;51.938;7.626;2022-09-01T01:31:43;15.30;;;9.35;;
40781;SDS011;26493;51.938;7.626;2022-09-01T01:34:11;17.27;;;9.57;;
40781;SDS011;26493;51.938;7.626;2022-09-01T01:36:37;16.27;;;9.43;;
40781;SDS011;26493;51.938;7.626;2022-09-01T01:39:11;15.60;;;9.52;;
40781;SDS011;26493;51.938;7.626;2022-09-01T01:41:38;16.23;;;9.20;;
40781;SDS011;26493;51.938;7.626;2022-09-01T01:44:09;16.92;;;9.30;;
40781;SDS011;26493;51.938;7.626;2022-09-01T01:46:38;14.90;;;9.60;;
40781;SDS011;26493;51.938;7.626;2022-09-01T01:49:06;14.55;;;9.38;;
40781;SDS011;26493;51.938;7.626;2022-09-01T01:51:32;16.45;;;9.60;;
40781;SDS011;26493;51.938;7.626;2022-09-01T01:53:59;14.50;;;9.20;;
40781;SDS011;26493;51.938;7.626;2022-09-01T01:56:29;14.48;;;9.32;;
40781;SDS011;26493;51.938;7.626;2022-09-01T01:58:57;16.23;;;9.43;;
40781;SDS011;26493;51.938;7.626;2022-09-01T02:01:24;15.27;;;9.38;;
40781;SDS011;26493;51.938;7.626;2022-09-01T02:03:52;14.73;;;10.10;;
40781;SDS011;26493;51.938;7.626;2022-09-01T02:06:20;16.05;;;9.60;;
40781;SDS011;26493;51.938;7.626;2022-09-01T02:08:48;15.57;;;9.90;;
40781;SDS011;26493;51.938;7.626;2022-09-01T02:11:16;14.80;;;9.50;;
40781;SDS011;26493;51.938;7.626;2022-09-01T02:13:42;16.38;;;9.57;;
40781;SDS011;26493;51.938;7.626;2022-09-01T02:16:09;17.00;;;9.80;;
40781;SDS011;26493;51.938;7.626;2022-09-01T02:18:40;14.65;;;9.35;;
40781;SDS011;26493;51.938;7.626;2022-09-01T02:23:34;15.65;;;9.98;;
40781;SDS011;26493;51.938;7.626;2022-09-01T02:26:00;14.38;;;9.50;;
40781;SDS011;26493;51.938;7.626;2022-09-01T02:28:28;16.45;;;9.85;;
40781;SDS011;26493;51.938;7.626;2022-09-01T02:30:56;15.82;;;9.35;;
40781;SDS011;26493;51.938;7.626;2022-09-01T02:33:23;15.05;;;10.10;;
40781;SDS011;26493;51.938;7.626;2022-09-01T02:35:51;17.00;;;9.70;;
40781;SDS011;26493;51.938;7.626;2022-09-01T02:38:17;15.80;;;9.75;;
40781;SDS011;26493;51.938;7.626;2022-09-01T02:40:45;14.95;;;9.32;;
40781;SDS011;26493;51.938;7.626;2022-09-01T02:43:11;16.77;;;9.50;;
40781;SDS011;26493;51.938;7.626;2022-09-01T02:45:39;16.05;;;9.10;;
40781;SDS011;26493;51.938;7.626;2022-09-01T02:48:09;14.75;;;9.57;;
40781;SDS011;26493;51.938;7.626;2022-09-01T02:50:35;16.20;;;9.52;;
40781;SDS011;26493;51.938;7.626;2022-09-01T02:53:02;15.63;;;9.30;;
40781;SDS011;26493;51.938;7.626;2022-09-01T02:55:30;15.18;;;9.63;;
40781;SDS011;26493;51.938;7.626;2022-09-01T02:57:57;16.13;;;9.60;;
40781;SDS011;26493;51.938;7.626;2022-09-01T03:00:23;16.45;;;9.60;;
40781;SDS011;26493;51.938;7.626;2022-09-01T03:03:00;15.30;;;9.52;;
40781;SDS011;26493;51.938;7.626;2022-09-01T03:05:27;14.27;;;9.55;;
40781;SDS011;26493;51.938;7.626;2022-09-01T03:07:57;14.85;;;9.77;;
40781;SDS011;26493;51.938;7.626;2022-09-01T03:10:25;14.07;;;9.15;;
40781;SDS011;26493;51.938;7.626;2022-09-01T03:12:54;15.10;;;9.50;;
40781;SDS011;26493;51.938;7.626;2022-09-01T03:15:20;14.50;;;9.48;;
40781;SDS011;26493;51.938;7.626;2022-09-01T03:17:47;16.02;;;9.60;;
40781;SDS011;26493;51.938;7.626;2022-09-01T03:20:14;14.52;;;9.60;;
40781;SDS011;26493;51.938;7.626;2022-09-01T03:22:40;14.90;;;9.30;;
40781;SDS011;26493;51.938;7.626;2022-09-01T03:25:08;15.18;;;9.30;;
40781;SDS011;26493;51.938;7.626;2022-09-01T03:27:34;15.65;;;9.02;;
40781;SDS011;26493;51.938;7.626;2022-09-01T03:30:00;16.20;;;9.43;;
40781;SDS011;26493;51.938;7.626;2022-09-01T03:32:26;14.95;;;9.65;;
40781;SDS011;26493;51.938;7.626;2022-09-01T03:34:53;15.82;;;9.88;;
40781;SDS011;26493;51.938;7.626;2022-09-01T03:37:21;17.63;;;9.43;;
40781;SDS011;26493;51.938;7.626;2022-09-01T03:39:47;15.82;;;9.40;;
40781;SDS011;26493;51.938;7.626;2022-09-01T03:42:13;16.02;;;9.32;;
40781;SDS011;26493;51.938;7.626;2022-09-01T03:44:54;15.70;;;9.40;;
40781;SDS011;26493;51.938;7.626;2022-09-01T03:47:21;16.83;;;9.45;;
40781;SDS011;26493;51.938;7.626;2022-09-01T03:49:48;15.73;;;9.52;;
40781;SDS011;26493;51.938;7.626;2022-09-01T03:52:15;17.58;;;9.52;;
40781;SDS011;26493;51.938;7.626;2022-09-01T03:54:41;16.35;;;9.40;;
40781;SDS011;26493;51.938;7.626;2022-09-01T03:57:08;15.90;;;9.30;;
40781;SDS011;26493;51.938;7.626;2022-09-01T03:59:34;15.73;;;9.57;;
40781;SDS011;26493;51.938;7.626;2022-09-01T04:02:00;17.13;;;10.13;;
40781;SDS011;26493;51.938;7.626;2022-09-01T04:04:27;14.55;;;9.52;;
40781;SDS011;26493;51.938;7.626;2022-09-01T04:06:57;16.98;;;9.50;;
40781;SDS011;26493;51.938;7.626;2022-09-01T04:09:24;16.05;;;9.93;;
40781;SDS011;26493;51.938;7.626;2022-09-01T04:11:50;15.45;;;9.63;;
40781;SDS011;26493;51.938;7.626;2022-09-01T04:14:17;14.93;;;9.40;;
40781;SDS011;26493;51.938;7.626;2022-09-01T04:16:44;17.40;;;9.77;;
40781;SDS011;26493;51.938;7.626;2022-09-01T04:19:31;15.73;;;9.80;;
40781;SDS011;26493;51.938;7.626;2022-09-01T04:22:01;17.20;;;9.88;;
40781;SDS011;26493;51.938;7.626;2022-09-01T04:24:29;15.80;;;9.63;;
40781;SDS011;26493;51.938;7.626;2022-09-01T04:29:23;15.75;;;9.60;;
40781;SDS011;26493;51.938;7.626;2022-09-01T04:31:53;15.95;;;9.70;;
40781;SDS011;26493;51.938;7.626;2022-09-01T04:34:20;15.43;;;9.93;;
40781;SDS011;26493;51.938;7.626;2022-09-01T04:36:46;15.52;;;10.32;;
40781;SDS011;26493;51.938;7.626;2022-09-01T04:39:12;15.90;;;10.43;;
40781;SDS011;26493;51.938;7.626;2022-09-01T04:41:42;19.55;;;10.73;;
40781;SDS011;26493;51.938;7.626;2022-09-01T04:44:13;16.58;;;10.57;;
40781;SDS011;26493;51.938;7.626;2022-09-01T04:46:43;17.55;;;10.10;;
40781;SDS011;26493;51.938;7.626;2022-09-01T04:49:12;15.23;;;9.85;;
40781;SDS011;26493;51.938;7.626;2022-09-01T04:51:43;15.65;;;9.57;;
40781;SDS011;26493;51.938;7.626;2022-09-01T04:54:11;15.52;;;9.55;;
40781;SDS011;26493;51.938;7.626;2022-09-01T04:56:38;15.73;;;9.68;;
40781;SDS011;26493;51.938;7.626;2022-09-01T04:59:05;17.02;;;9.90;;
40781;SDS011;26493;51.938;7.626;2022-09-01T05:01:32;16.73;;;9.80;;
40781;SDS011;26493;51.938;7.626;2022-09-01T05:04:07;16.83;;;9.55;;
40781;SDS011;26493;51.938;7.626;2022-09-01T05:06:33;18.42;;;9.85;;
40781;SDS011;26493;51.938;7.626;2022-09-01T05:09:03;14.57;;;9.25;;
40781;SDS011;26493;51.938;7.626;2022-09-01T05:11:29;15.82;;;9.80;;
40781;SDS011;26493;51.938;7.626;2022-09-01T05:13:55;16.73;;;10.07;;
40781;SDS011;26493;51.938;7.626;2022-09-01T05:16:22;17.13;;;11.40;;
40781;SDS011;26493;51.938;7.626;2022-09-01T05:18:51;18.50;;;11.55;;
40781;SDS011;26493;51.938;7.626;2022-09-01T05:21:18;20.60;;;13.20;;
40781;SDS011;26493;51.938;7.626;2022-09-01T05:23:46;18.73;;;10.77;;
40781;SDS011;26493;51.938;7.626;2022-09-01T05:26:25;26.88;;;12.65;;
40781;SDS011;26493;51.938;7.626;2022-09-01T05:28:52;19.15;;;11.07;;
40781;SDS011;26493;51.938;7.626;2022-09-01T05:31:19;17.42;;;10.90;;
40781;SDS011;26493;51.938;7.626;2022-09-01T05:33:46;17.25;;;11.05;;
40781;SDS011;26493;51.938;7.626;2022-09-01T05:36:15;19.20;;;12.25;;
40781;SDS011;26493;51.938;7.626;2022-09-01T05:38:42;18.52;;;11.43;;
40781;SDS011;26493;51.938;7.626;2022-09-01T05:41:09;20.30;;;11.18;;
40781;SDS011;26493;51.938;7.626;2022-09-01T05:43:39;16.30;;;10.52;;
40781;SDS011;26493;51.938;7.626;2022-09-01T05:46:10;17.60;;;10.25;;
40781;SDS011;26493;51.938;7.626;2022-09-01T05:48:36;17.42;;;10.88;;
40781;SDS011;26493;51.938;7.626;2022-09-01T05:51:04;18.65;;;10.50;;
40781;SDS011;26493;51.938;7.626;2022-09-01T05:53:30;19.30;;;10.88;;
40781;SDS011;26493;51.938;7.626;2022-09-01T05:55:58;19.10;;;10.52;;
40781;SDS011;26493;51.938;7.626;2022-09-01T05:58:25;15.98;;;10.00;;
40781;SDS011;26493;51.938;7.626;2022-09-01T06:00:52;18.08;;;10.32;;
40781;SDS011;26493;51.938;7.626;2022-09-01T06:03:20;16.17;;;10.07;;
40781;SDS011;26493;51.938;7.626;2022-09-01T06:05:46;17.90;;;10.30;;
40781;SDS011;26493;51.938;7.626;2022-09-01T06:08:17;20.95;;;12.13;;
40781;SDS011;26493;51.938;7.626;2022-09-01T06:10:43;20.63;;;11.25;;
40781;SDS011;26493;51.938;7.626;2022-09-01T06:13:10;19.88;;;11.65;;
40781;SDS011;26493;51.938;7.626;2022-09-01T06:15:40;18.27;;;11.05;;
40781;SDS011;26493;51.938;7.626;2022-09-01T06:18:07;21.63;;;10.75;;
40781;SDS011;26493;51.938;7.626;2022-09-01T06:20:37;22.20;;;11.07;;
40781;SDS011;26493;51.938;7.626;2022-09-01T06:23:04;20.33;;;10.70;;
40781;SDS011;26493;51.938;7.626;2022-09-01T06:25:30;17.00;;;10.60;;
40781;SDS011;26493;51.938;7.626;2022-09-01T06:27:56;16.88;;;10.73;;
40781;SDS011;26493;51.938;7.626;2022-09-01T06:30:24;17.52;;;11.68;;
40781;SDS011;26493;51.938;7.626;2022-09-01T06:32:51;20.40;;;11.18;;
40781;SDS011;26493;51.938;7.626;2022-09-01T06:35:17;17.27;;;11.98;;
40781;SDS011;26493;51.938;7.626;2022-09-01T06:37:44;17.55;;;10.82;;
40781;SDS011;26493;51.938;7.626;2022-09-01T06:40:11;19.40;;;10.70;;
40781;SDS011;26493;51.938;7.626;2022-09-01T06:42:48;15.73;;;10.40;;
40781;SDS011;26493;51.938;7.626;2022-09-01T06:45:17;16.38;;;10.13;;
40781;SDS011;26493;51.938;7.626;2022-09-01T06:47:44;15.93;;;10.50;;
40781;SDS011;26493;51.938;7.626;2022-09-01T06:50:11;17.40;;;11.27;;
40781;SDS011;26493;51.938;7.626;2022-09-01T06:52:42;20.08;;;11.18;;
40781;SDS011;26493;51.938;7.626;2022-09-01T06:55:12;21.83;;;11.63;;
40781;SDS011;26493;51.938;7.626;2022-09-01T06:57:39;17.80;;;11.30;;
40781;SDS011;26493;51.938;7.626;2022-09-01T07:00:09;21.10;;;11.73;;
40781;SDS011;26493;51.938;7.626;2022-09-01T07:02:43;18.60;;;11.25;;
40781;SDS011;26493;51.938;7.626;2022-09-01T07:05:09;15.63;;;10.83;;
40781;SDS011;26493;51.938;7.626;2022-09-01T07:07:35;20.85;;;11.27;;
40781;SDS011;26493;51.938;7.626;2022-09-01T07:10:02;26.77;;;11.38;;
40781;SDS011;26493;51.938;7.626;2022-09-01T07:12:28;16.05;;;10.57;;
40781;SDS011;26493;51.938;7.626;2022-09-01T07:14:55;17.45;;;10.60;;
40781;SDS011;26493;51.938;7.626;2022-09-01T07:17:22;19.60;;;11.27;;
40781;SDS011;26493;51.938;7.626;2022-09-01T07:19:49;16.25;;;10.43;;
40781;SDS011;26493;51.938;7.626;2022-09-01T07:22:15;16.05;;;10.98;;
40781;SDS011;26493;51.938;7.626;2022-09-01T07:24:41;18.15;;;10.60;;
40781;SDS011;26493;51.938;7.626;2022-09-01T07:27:10;18.73;;;10.57;;
40781;SDS011;26493;51.938;7.626;2022-09-01T07:29:36;20.30;;;11.40;;
40781;SDS011;26493;51.938;7.626;2022-09-01T07:32:03;20.63;;;10.70;;
40781;SDS011;26493;51.938;7.626;2022-09-01T07:34:29;16.80;;;11.25;;
40781;SDS011;26493;51.938;7.626;2022-09-01T07:36:56;16.25;;;10.63;;
40781;SDS011;26493;51.938;7.626;2022-09-01T07:39:24;21.87;;;12.00;;
40781;SDS011;26493;51.938;7.626;2022-09-01T07:41:50;19.25;;;11.30;;
40781;SDS011;26493;51.938;7.626;2022-09-01T07:44:17;15.50;;;10.55;;
40781;SDS011;26493;51.938;7.626;2022-09-01T07:46:43;16.58;;;10.95;;
40781;SDS011;26493;51.938;7.626;2022-09-01T07:49:13;16.45;;;11.13;;
40781;SDS011;26493;51.938;7.626;2022-09-01T07:51:40;15.80;;;10.98;;
40781;SDS011;26493;51.938;7.626;2022-09-01T07:54:07;16.45;;;11.02;;
40781;SDS011;26493;51.938;7.626;2022-09-01T07:56:37;16.35;;;10.65;;
40781;SDS011;26493;51.938;7.626;2022-09-01T07:59:05;18.63;;;11.65;;
40781;SDS011;26493;51.938;7.626;2022-09-01T08:01:32;16.98;;;10.60;;
40781;SDS011;26493;51.938;7.626;2022-09-01T08:03:58;17.40;;;10.82;;
40781;SDS011;26493;51.938;7.626;2022-09-01T08:06:26;15.50;;;10.65;;
40781;SDS011;26493;51.938;7.626;2022-09-01T08:08:53;16.13;;;11.20;;
40781;SDS011;26493;51.938;7.626;2022-09-01T08:11:22;24.40;;;11.37;;
40781;SDS011;26493;51.938;7.626;2022-09-01T08:16:14;19.10;;;10.93;;
40781;SDS011;26493;51.938;7.626;2022-09-01T08:18:41;19.45;;;10.80;;
40781;SDS011;26493;51.938;7.626;2022-09-01T08:21:09;18.15;;;10.93;;
40781;SDS011;26493;51.938;7.626;2022-09-01T08:23:36;17.98;;;11.45;;
40781;SDS011;26493;51.938;7.626;2022-09-01T08:26:06;17.05;;;11.13;;
40781;SDS011;26493;51.938;7.626;2022-09-01T08:28:32;16.85;;;10.88;;
40781;SDS011;26493;51.938;7.626;2022-09-01T08:30:58;16.08;;;11.30;;
40781;SDS011;26493;51.938;7.626;2022-09-01T08:33:25;16.40;;;11.00;;
40781;SDS011;26493;51.938;7.626;2022-09-01T08:35:51;15.85;;;10.95;;
40781;SDS011;26493;51.938;7.626;2022-09-01T08:38:18;17.48;;;10.93;;
40781;SDS011;26493;51.938;7.626;2022-09-01T08:40:49;17.15;;;11.00;;
40781;SDS011;26493;51.938;7.626;2022-09-01T08:45:51;16.52;;;11.23;;
40781;SDS011;26493;51.938;7.626;2022-09-01T08:48:23;17.50;;;11.80;;
40781;SDS011;26493;51.938;7.626;2022-09-01T08:50:54;17.27;;;11.57;;
40781;SDS011;26493;51.938;7.626;2022-09-01T08:55:49;16.63;;;11.30;;
40781;SDS011;26493;51.938;7.626;2022-09-01T08:58:16;18.83;;;10.82;;
40781;SDS011;26493;51.938;7.626;2022-09-01T09:00:44;16.67;;;11.00;;
40781;SDS011;26493;51.938;7.626;2022-09-01T09:14:17;16.52;;;10.90;;
40781;SDS011;26493;51.938;7.626;2022-09-01T09:16:48;15.80;;;11.23;;
40781;SDS011;26493;51.938;7.626;2022-09-01T09:21:42;17.92;;;10.90;;
40781;SDS011;26493;51.938;7.626;2022-09-01T09:24:11;16.63;;;10.52;;
40781;SDS011;26493;51.938;7.626;2022-09-01T09:26:39;16.60;;;10.70;;
40781;SDS011;26493;51.938;7.626;2022-09-01T09:29:05;19.48;;;12.18;;
40781;SDS011;26493;51.938;7.626;2022-09-01T09:31:36;17.27;;;11.45;;
40781;SDS011;26493;51.938;7.626;2022-09-01T09:42:28;17.33;;;11.20;;
40781;SDS011;26493;51.938;7.626;2022-09-01T09:44:55;18.77;;;12.02;;
40781;SDS011;26493;51.938;7.626;2022-09-01T09:50:17;15.85;;;11.30;;
40781;SDS011;26493;51.938;7.626;2022-09-01T09:52:45;15.50;;;10.95;;
40781;SDS011;26493;51.938;7.626;2022-09-01T09:55:27;17.13;;;11.52;;
40781;SDS011;26493;51.938;7.626;2022-09-01T09:57:55;17.75;;;11.30;;
40781;SDS011;26493;51.938;7.626;2022-09-01T10:02:56;17.55;;;11.63;;
40781;SDS011;26493;51.938;7.626;2022-09-01T10:07:58;15.65;;;11.30;;
40781;SDS011;26493;51.938;7.626;2022-09-01T10:13:13;15.77;;;11.52;;
40781;SDS011;26493;51.938;7.626;2022-09-01T10:15:40;15.65;;;11.35;;
40781;SDS011;26493;51.938;7.626;2022-09-01T10:18:09;16.60;;;11.05;;
40781;SDS011;26493;51.938;7.626;2022-09-01T10:20:39;16.88;;;12.02;;
40781;SDS011;26493;51.938;7.626;2022-09-01T10:23:06;17.08;;;11.77;;
40781;SDS011;26493;51.938;7.626;2022-09-01T10:25:32;16.85;;;11.15;;
40781;SDS011;26493;51.938;7.626;2022-09-01T10:28:10;15.77;;;10.70;;
40781;SDS011;26493;51.938;7.626;2022-09-01T10:30:38;16.83;;;11.40;;
40781;SDS011;26493;51.938;7.626;2022-09-01T10:33:06;18.63;;;11.60;;
40781;SDS011;26493;51.938;7.626;2022-09-01T10:35:34;17.02;;;10.90;;
40781;SDS011;26493;51.938;7.626;2022-09-01T10:38:05;16.13;;;10.95;;
40781;SDS011;26493;51.938;7.626;2022-09-01T10:42:59;16.85;;;11.73;;
40781;SDS011;26493;51.938;7.626;2022-09-01T10:45:45;15.52;;;11.18;;
40781;SDS011;26493;51.938;7.626;2022-09-01T10:50:51;19.65;;;11.40;;
40781;SDS011;26493;51.938;7.626;2022-09-01T10:56:00;18.50;;;11.40;;
40781;SDS011;26493;51.938;7.626;2022-09-01T10:59:22;16.38;;;11.18;;
40781;SDS011;26493;51.938;7.626;2022-09-01T11:01:13;16.77;;;11.05;;
40781;SDS011;26493;51.938;7.626;2022-09-01T11:09:02;14.90;;;10.75;;
40781;SDS011;26493;51.938;7.626;2022-09-01T11:11:38;15.90;;;10.68;;
40781;SDS011;26493;51.938;7.626;2022-09-01T11:14:19;16.55;;;11.45;;
40781;SDS011;26493;51.938;7.626;2022-09-01T11:19:41;19.98;;;12.07;;
40781;SDS011;26493;51.938;7.626;2022-09-01T11:27:05;18.00;;;11.82;;
40781;SDS011;26493;51.938;7.626;2022-09-01T11:32:15;17.17;;;11.98;;
40781;SDS011;26493;51.938;7.626;2022-09-01T11:34:42;17.30;;;12.00;;
40781;SDS011;26493;51.938;7.626;2022-09-01T11:42:05;16.67;;;12.00;;
40781;SDS011;26493;51.938;7.626;2022-09-01T11:47:06;16.23;;;11.40;;
40781;SDS011;26493;51.938;7.626;2022-09-01T11:49:33;16.33;;;11.70;;
40781;SDS011;26493;51.938;7.626;2022-09-01T11:52:00;18.25;;;12.32;;
40781;SDS011;26493;51.938;7.626;2022-09-01T11:54:28;15.40;;;11.55;;
40781;SDS011;26493;51.938;7.626;2022-09-01T11:56:54;15.65;;;11.88;;
40781;SDS011;26493;51.938;7.626;2022-09-01T11:59:31;15.45;;;11.73;;
40781;SDS011;26493;51.938;7.626;2022-09-01T12:01:57;16.25;;;12.35;;
40781;SDS011;26493;51.938;7.626;2022-09-01T12:04:24;16.67;;;12.48;;
40781;SDS011;26493;51.938;7.626;2022-09-01T12:09:17;15.55;;;11.05;;
40781;SDS011;26493;51.938;7.626;2022-09-01T12:11:43;15.50;;;11.50;;
40781;SDS011;26493;51.938;7.626;2022-09-01T12:14:10;16.08;;;11.30;;
40781;SDS011;26493;51.938;7.626;2022-09-01T12:16:37;17.35;;;11.52;;
40781;SDS011;26493;51.938;7.626;2022-09-01T12:19:06;15.75;;;11.00;;
40781;SDS011;26493;51.938;7.626;2022-09-01T12:21:37;20.17;;;11.18;;
40781;SDS011;26493;51.938;7.626;2022-09-01T12:26:35;16.45;;;11.50;;
40781;SDS011;26493;51.938;7.626;2022-09-01T12:29:02;17.75;;;13.30;;
40781;SDS011;26493;51.938;7.626;2022-09-01T12:31:29;17.48;;;12.02;;
40781;SDS011;26493;51.938;7.626;2022-09-01T12:33:55;16.67;;;11.00;;
40781;SDS011;26493;51.938;7.626;2022-09-01T12:36:28;15.00;;;11.00;;
40781;SDS011;26493;51.938;7.626;2022-09-01T12:38:56;15.30;;;11.20;;
40781;SDS011;26493;51.938;7.626;2022-09-01T12:41:24;15.98;;;11.10;;
40781;SDS011;26493;51.938;7.626;2022-09-01T12:43:50;15.68;;;10.85;;
40781;SDS011;26493;51.938;7.626;2022-09-01T12:49:21;17.15;;;11.13;;
40781;SDS011;26493;51.938;7.626;2022-09-01T12:51:49;18.30;;;12.30;;
40781;SDS011;26493;51.938;7.626;2022-09-01T12:54:16;16.83;;;11.70;;
40781;SDS011;26493;51.938;7.626;2022-09-01T12:56:49;18.15;;;12.55;;
40781;SDS011;26493;51.938;7.626;2022-09-01T12:59:20;18.95;;;11.77;;
40781;SDS011;26493;51.938;7.626;2022-09-01T13:01:47;16.15;;;11.63;;
40781;SDS011;26493;51.938;7.626;2022-09-01T13:06:49;16.27;;;11.05;;
40781;SDS011;26493;51.938;7.626;2022-09-01T13:09:15;15.60;;;11.90;;
40781;SDS011;26493;51.938;7.626;2022-09-01T13:11:41;15.75;;;11.43;;
40781;SDS011;26493;51.938;7.626;2022-09-01T13:14:08;16.75;;;12.40;;
40781;SDS011;26493;51.938;7.626;2022-09-01T13:16:34;15.50;;;11.63;;
40781;SDS011;26493;51.938;7.626;2022-09-01T13:19:01;15.60;;;11.90;;
40781;SDS011;26493;51.938;7.626;2022-09-01T13:21:27;16.20;;;11.50;;
40781;SDS011;26493;51.938;7.626;2022-09-01T13:23:54;15.70;;;11.10;;
40781;SDS011;26493;51.938;7.626;2022-09-01T13:26:20;15.30;;;11.20;;
40781;SDS011;26493;51.938;7.626;2022-09-01T13:28:46;15.30;;;11.68;;
40781;SDS011;26493;51.938;7.626;2022-09-01T13:31:12;18.63;;;11.60;;
40781;SDS011;26493;51.938;7.626;2022-09-01T13:33:39;17.63;;;11.75;;
40781;SDS011;26493;51.938;7.626;2022-09-01T13:36:05;18.20;;;11.40;;
40781;SDS011;26493;51.938;7.626;2022-09-01T13:38:31;16.63;;;11.43;;
40781;SDS011;26493;51.938;7.626;2022-09-01T13:40:57;15.65;;;10.60;;
40781;SDS011;26493;51.938;7.626;2022-09-01T13:43:25;15.70;;;10.68;;
40781;SDS011;26493;51.938;7.626;2022-09-01T13:45:51;16.00;;;11.07;;
40781;SDS011;26493;51.938;7.626;2022-09-01T13:48:17;16.52;;;11.25;;
40781;SDS011;26493;51.938;7.626;2022-09-01T13:50:44;15.18;;;11.45;;
40781;SDS011;26493;51.938;7.626;2022-09-01T13:53:11;15.10;;;11.03;;
40781;SDS011;26493;51.938;7.626;2022-09-01T13:55:38;15.80;;;11.48;;
40781;SDS011;26493;51.938;7.626;2022-09-01T13:58:04;16.30;;;11.65;;
40781;SDS011;26493;51.938;7.626;2022-09-01T14:00:38;19.02;;;12.48;;
40781;SDS011;26493;51.938;7.626;2022-09-01T14:03:06;15.55;;;11.70;;
40781;SDS011;26493;51.938;7.626;2022-09-01T14:05:34;17.00;;;11.30;;
40781;SDS011;26493;51.938;7.626;2022-09-01T14:08:00;16.45;;;12.48;;
40781;SDS011;26493;51.938;7.626;2022-09-01T14:10:27;16.50;;;12.00;;
40781;SDS011;26493;51.938;7.626;2022-09-01T14:12:54;15.75;;;11.75;;
40781;SDS011;26493;51.938;7.626;2022-09-01T14:15:20;15.68;;;11.45;;
40781;SDS011;26493;51.938;7.626;2022-09-01T14:17:47;17.90;;;11.38;;
40781;SDS011;26493;51.938;7.626;2022-09-01T14:20:16;17.33;;;11.38;;
40781;SDS011;26493;51.938;7.626;2022-09-01T14:22:42;16.52;;;10.95;;
40781;SDS011;26493;51.938;7.626;2022-09-01T14:25:09;17.47;;;11.70;;
40781;SDS011;26493;51.938;7.626;2022-09-01T14:27:36;15.07;;;11.40;;
40781;SDS011;26493;51.938;7.626;2022-09-01T14:30:03;15.65;;;11.02;;
40781;SDS011;26493;51.938;7.626;2022-09-01T14:32:30;17.45;;;11.50;;
40781;SDS011;26493;51.938;7.626;2022-09-01T14:34:56;17.80;;;12.45;;
40781;SDS011;26493;51.938;7.626;2022-09-01T14:37:23;15.45;;;11.48;;
40781;SDS011;26493;51.938;7.626;2022-09-01T14:39:49;17.65;;;12.00;;
40781;SDS011;26493;51.938;7.626;2022-09-01T14:42:16;15.70;;;11.57;;
40781;SDS011;26493;51.938;7.626;2022-09-01T14:44:43;15.30;;;11.48;;
40781;SDS011;26493;51.938;7.626;2022-09-01T14:47:09;15.45;;;11.80;;
40781;SDS011;26493;51.938;7.626;2022-09-01T14:49:36;16.00;;;10.80;;
40781;SDS011;26493;51.938;7.626;2022-09-01T14:52:03;16.10;;;11.48;;
40781;SDS011;26493;51.938;7.626;2022-09-01T14:54:30;16.30;;;12.35;;
40781;SDS011;26493;51.938;7.626;2022-09-01T14:56:57;15.35;;;11.30;;
40781;SDS011;26493;51.938;7.626;2022-09-01T14:59:23;16.42;;;11.48;;
40781;SDS011;26493;51.938;7.626;2022-09-01T15:01:49;15.40;;;10.90;;
40781;SDS011;26493;51.938;7.626;2022-09-01T15:04:15;15.63;;;11.38;;
40781;SDS011;26493;51.938;7.626;2022-09-01T15:06:41;15.00;;;11.00;;
40781;SDS011;26493;51.938;7.626;2022-09-01T15:09:07;18.48;;;11.00;;
40781;SDS011;26493;51.938;7.626;2022-09-01T15:11:33;15.98;;;11.15;;
40781;SDS011;26493;51.938;7.626;2022-09-01T15:13:59;15.20;;;11.43;;
40781;SDS011;26493;51.938;7.626;2022-09-01T15:16:25;16.55;;;11.02;;
40781;SDS011;26493;51.938;7.626;2022-09-01T15:18:54;16.58;;;11.73;;
40781;SDS011;26493;51.938;7.626;2022-09-01T15:21:24;17.25;;;12.23;;
40781;SDS011;26493;51.938;7.626;2022-09-01T15:23:51;15.40;;;10.80;;
40781;SDS011;26493;51.938;7.626;2022-09-01T15:26:18;15.10;;;11.10;;
40781;SDS011;26493;51.938;7.626;2022-09-01T15:28:44;15.63;;;11.50;;
40781;SDS011;26493;51.938;7.626;2022-09-01T15:31:11;16.92;;;11.30;;
40781;SDS011;26493;51.938;7.626;2022-09-01T15:33:38;19.20;;;10.83;;
40781;SDS011;26493;51.938;7.626;2022-09-01T15:36:04;15.38;;;11.40;;
40781;SDS011;26493;51.938;7.626;2022-09-01T15:38:31;16.38;;;11.27;;
40781;SDS011;26493;51.938;7.626;2022-09-01T15:40:57;15.52;;;11.00;;
40781;SDS011;26493;51.938;7.626;2022-09-01T15:43:26;19.98;;;12.40;;
40781;SDS011;26493;51.938;7.626;2022-09-01T15:45:52;17.67;;;12.70;;
40781;SDS011;26493;51.938;7.626;2022-09-01T15:48:18;18.38;;;11.90;;
40781;SDS011;26493;51.938;7.626;2022-09-01T15:50:44;15.63;;;11.38;;
40781;SDS011;26493;51.938;7.626;2022-09-01T15:53:10;17.95;;;11.50;;
40781;SDS011;26493;51.938;7.626;2022-09-01T15:55:41;16.95;;;11.52;;
40781;SDS011;26493;51.938;7.626;2022-09-01T15:58:08;16.45;;;11.32;;
40781;SDS011;26493;51.938;7.626;2022-09-01T16:00:34;17.45;;;13.52;;
40781;SDS011;26493;51.938;7.626;2022-09-01T16:03:00;17.95;;;12.38;;